Beauvechain, Belgium

1:37 AM CEST on July 28, 2016 (GMT +0200)
Avenue des Cerisiers | | Change Station

Elev 213 ft 50.78 °N, 4.72 °E | Updated 3 minutes ago

Mostly Cloudy
Mostly Cloudy
67.1 °F
Feels Like 67.1 °F
N
0.6
Wind Variable Wind from SW
Gusts 1.9 mph

Today
High -- | Low -- °F
--% Chance of Precip.
Yesterday
High -- | Low -- °F
Precip. -- in
Pressure 30.04 in
Visibility 6.2 miles
Clouds Few 2000 ft
Mostly Cloudy 2500 ft
Dew Point 62 °F
Humidity 85%
Rainfall 0.00 in
Snow Depth Not available.
6:02 AM 9:31 PM
Last Quarter, 38% visible
METAR EBBR 272320Z 20004KT 170V240 9999 FEW020 BKN025 18/16 Q1017 NOSIG
Pressure 30.04 in
Visibility 6.2 miles
Clouds Few 2000 ft
Mostly Cloudy 2500 ft
Dew Point 62 °F
Humidity 85%
Rainfall 0.00 in
Snow Depth Not available.
6:02 AM 9:31 PM
Last Quarter, 38% visible
METAR EBBR 272320Z 20004KT 170V240 9999 FEW020 BKN025 18/16 Q1017 NOSIG

10-Day Weather Forecast

×

Almanac

Astronomy

Jul. 28, 2016 Rise Set
Actual Time
Civil Twilight
Nautical Twilight
Astronomical Twilight
Moon
Length of Visible Light
Length of Day
Tomorrow will be .
, % of the Moon is Illuminated

Today's Extremes

Country Highs Country Lows

Community

WunderPhotos

Upload Photos

1,927,957 photos uploaded!

WunderBlog® & News

Nearby

Air Quality

  Air Quality AQ Index Pollutant
Not available.

Snow Depth

Station Depth Elevation

Earthquake Activity

City Distance Mag. Time & Date
Minimum magnitude displayed is 2.5.

Coastal Water Temperatures

Place Temperature

Stations

Nearby Weather Stations

Station Location Temp. Windchill Dew Point Humidity Wind Precip. Elev Updated Type